Terminal Aerodrome Forecast
Issued by NWS

Home | Current Version | Previous Version | Text Only | Print | Product List | Glossary On
Versions: 1 2 3 4 5 6 7 8 9 10 11 12 13 14 15 16
031
FTUS46 KPDT 241139
TAFYKM
TAF
KYKM 241139Z 2412/2512 28005KT P6SM FEW100 SCT200
     FM241700 VRB04KT P6SM FEW080
     FM250100 33008KT P6SM SCT110
     FM250500 32006KT P6SM FEW120=

USA.gov is the U.S. government's official web portal to all federal, state and local government web resources and services.